Time;durP1;ratioP1;P1;durP2;ratioP2;P2;SDS_P1;SDS_P2;PMS_P1;PMS_P2;Temp;Humidity;BMP_temperature;BMP_pressure;BME280_temperature;BME280_humidity;BME280_pressure;Samples;Min_cycle;Max_cycle;Signal;HPM_P1;HPM_P2
2022/12/22 03:40:19;;;;;;;119.30;44.10;;;;;;;5.93;100.00;99661.05;661056;1312;139717;-87
2022/12/22 03:55:22;;;;;;;101.00;38.50;;;;;;;5.93;100.00;99658.48;661135;1305;139001;-88
2022/12/22 04:25:47;;;;;;;111.60;42.00;;;;;;;5.88;100.00;99635.45;660914;1304;139265;-87
2022/12/22 04:40:50;;;;;;;105.10;40.60;;;;;;;5.95;100.00;99633.86;661174;1312;138997;-88
2022/12/22 04:55:57;;;;;;;109.20;38.90;;;;;;;5.90;100.00;99623.82;660963;1311;139293;-87
2022/12/22 05:11:01;;;;;;;114.80;44.50;;;;;;;5.92;100.00;99636.85;660728;1312;139280;-87
2022/12/22 05:26:05;;;;;;;117.80;43.60;;;;;;;5.92;100.00;99637.90;660824;1312;139117;-87
2022/12/22 05:41:08;;;;;;;111.90;44.00;;;;;;;5.99;100.00;99643.25;660834;1305;139225;-88
2022/12/22 05:56:11;;;;;;;118.90;45.90;;;;;;;6.01;100.00;99638.09;660909;1312;139151;-88
2022/12/22 06:11:17;;;;;;;100.30;40.00;;;;;;;5.98;100.00;99626.48;660846;1313;139062;-87
2022/12/22 06:26:20;;;;;;;116.60;44.20;;;;;;;6.03;100.00;99620.23;660854;1312;139149;-88
2022/12/22 06:56:45;;;;;;;105.30;40.30;;;;;;;6.11;100.00;99628.27;661229;1309;139116;-87
2022/12/22 07:11:48;;;;;;;115.40;43.80;;;;;;;6.07;100.00;99636.42;660836;1305;139049;-88
2022/12/22 07:26:52;;;;;;;137.40;56.20;;;;;;;6.15;100.00;99628.60;660750;1311;139115;-87
2022/12/22 07:57:17;;;;;;;111.10;43.80;;;;;;;6.27;100.00;99622.42;660825;1312;138776;-87
2022/12/22 08:12:20;;;;;;;159.50;76.30;;;;;;;6.25;100.00;99597.09;660825;1312;138767;-88
2022/12/22 08:27:28;;;;;;;122.00;50.50;;;;;;;6.32;100.00;99585.77;661024;1312;138772;-88
2022/12/22 08:42:32;;;;;;;123.60;46.40;;;;;;;6.32;100.00;99583.33;660846;1312;138851;-87
2022/12/22 08:57:36;;;;;;;118.80;46.50;;;;;;;6.27;100.00;99573.51;660759;1312;138627;-88
2022/12/22 09:12:39;;;;;;;136.70;50.20;;;;;;;6.34;100.00;99563.16;660820;1312;138872;-88
2022/12/22 09:27:43;;;;;;;145.30;58.30;;;;;;;6.45;100.00;99546.69;660875;1312;138693;-89
2022/12/22 09:42:46;;;;;;;128.00;51.00;;;;;;;6.48;100.00;99521.25;660972;1312;139651;-89
2022/12/22 09:57:50;;;;;;;141.20;54.10;;;;;;;6.49;100.00;99494.24;661110;1312;141321;-88
2022/12/22 10:12:56;;;;;;;127.20;48.70;;;;;;;6.58;100.00;99475.75;662344;1303;139559;-88
2022/12/22 10:28:11;;;;;;;117.60;48.40;;;;;;;6.83;100.00;99462.01;660747;1312;141284;-86
2022/12/22 10:43:37;;;;;;;147.80;61.60;;;;;;;6.74;100.00;99431.02;660873;1310;138772;-88
2022/12/22 10:59:03;;;;;;;136.50;54.50;;;;;;;6.99;100.00;99399.14;660759;1312;138881;-88
2022/12/22 11:14:41;;;;;;;101.10;43.00;;;;;;;7.23;100.00;99383.27;660987;1312;139055;-87
2022/12/22 11:30:04;;;;;;;219.20;97.50;;;;;;;7.48;100.00;99370.84;660983;1311;138851;-88
2022/12/22 11:45:30;;;;;;;65.80;36.60;;;;;;;7.99;100.00;99353.89;660922;1312;138541;-87
2022/12/22 12:01:04;;;;;;;50.20;31.00;;;;;;;7.90;100.00;99340.75;660660;1311;139545;-88
2022/12/22 12:16:39;;;;;;;58.20;37.60;;;;;;;7.71;100.00;99324.03;660692;1313;139539;-87
2022/12/22 12:32:09;;;;;;;53.30;28.40;;;;;;;7.67;100.00;99295.30;661211;1308;138688;-88
2022/12/22 12:47:30;;;;;;;95.40;41.80;;;;;;;7.81;100.00;99281.88;660937;1312;138649;-88
2022/12/22 13:02:36;;;;;;;53.90;31.50;;;;;;;7.71;100.00;99269.53;660737;1312;138609;-90
2022/12/22 13:17:48;;;;;;;80.90;41.20;;;;;;;7.65;100.00;99264.14;660588;1312;139552;-83
2022/12/22 13:32:52;;;;;;;74.80;39.30;;;;;;;7.63;100.00;99250.80;660886;1312;138518;-83
2022/12/22 13:47:59;;;;;;;83.50;40.40;;;;;;;7.45;100.00;99248.60;660558;1312;138855;-87
2022/12/22 14:03:17;;;;;;;103.60;48.70;;;;;;;7.34;100.00;99235.52;660783;1312;138835;-85
2022/12/22 14:18:41;;;;;;;82.40;38.90;;;;;;;7.27;100.00;99222.27;660540;1312;165954;-86
2022/12/22 14:34:04;;;;;;;85.40;36.90;;;;;;;7.18;100.00;99204.81;660677;1313;138645;-85
2022/12/22 14:49:17;;;;;;;106.40;46.20;;;;;;;7.12;100.00;99192.66;660612;1311;138576;-85
2022/12/22 15:04:21;;;;;;;99.00;49.80;;;;;;;7.08;100.00;99183.07;661843;1297;138883;-85
2022/12/22 15:19:31;;;;;;;68.10;35.50;;;;;;;7.05;100.00;99172.63;660647;1313;138906;-86
2022/12/22 15:34:34;;;;;;;119.90;54.30;;;;;;;7.08;100.00;99162.75;660507;1309;138820;-86
2022/12/22 15:49:38;;;;;;;75.50;39.10;;;;;;;7.06;100.00;99150.39;660627;1299;138690;-85
2022/12/22 16:04:42;;;;;;;83.80;43.50;;;;;;;7.03;100.00;99144.30;660404;1312;138616;-88
2022/12/22 16:19:46;;;;;;;95.90;55.90;;;;;;;7.05;100.00;99125.81;660552;1313;138869;-87
2022/12/22 16:34:49;;;;;;;67.60;34.40;;;;;;;7.00;100.00;99118.92;660523;1307;138814;-86
2022/12/22 16:49:54;;;;;;;72.10;36.00;;;;;;;7.03;100.00;99096.09;659712;1312;138796;-85
2022/12/22 17:05:00;;;;;;;101.80;53.00;;;;;;;6.99;100.00;99096.11;659852;1312;138853;-86
2022/12/22 17:20:06;;;;;;;56.50;28.30;;;;;;;6.94;100.00;99083.91;660086;1312;138651;-86
2022/12/22 17:35:18;;;;;;;60.10;31.50;;;;;;;6.84;100.00;99094.54;660204;1312;138806;-86
2022/12/22 17:50:22;;;;;;;74.20;39.10;;;;;;;6.89;100.00;99081.08;660338;1312;138383;-86
2022/12/22 18:05:38;;;;;;;58.90;31.60;;;;;;;6.95;100.00;99065.59;659942;1312;138748;-87
2022/12/22 18:20:44;;;;;;;62.30;33.70;;;;;;;6.97;100.00;99053.88;660639;1312;138554;-86
2022/12/22 18:36:23;;;;;;;57.60;30.20;;;;;;;7.06;100.00;99042.05;660321;1291;138515;-90
2022/12/22 18:51:27;;;;;;;59.40;32.00;;;;;;;7.10;100.00;99034.73;660467;1309;138641;-86
2022/12/22 19:06:31;;;;;;;60.50;32.60;;;;;;;7.13;100.00;99028.56;659858;1305;138561;-87
2022/12/22 19:21:34;;;;;;;58.20;31.30;;;;;;;7.24;100.00;99021.20;660215;1307;138600;-86
2022/12/22 19:36:38;;;;;;;54.30;27.30;;;;;;;7.25;100.00;99020.86;659819;1312;138743;-87
2022/12/22 19:51:42;;;;;;;60.50;30.90;;;;;;;7.25;100.00;99018.77;659709;1312;138889;-88
2022/12/22 20:06:46;;;;;;;54.90;28.10;;;;;;;7.29;100.00;99024.52;659745;1313;138529;-86
2022/12/22 20:21:50;;;;;;;127.60;56.90;;;;;;;7.32;100.00;99020.18;659881;1313;138740;-86
2022/12/22 20:36:53;;;;;;;51.50;28.90;;;;;;;7.35;100.00;99011.41;659875;1312;140569;-86
2022/12/22 20:51:57;;;;;;;49.10;25.50;;;;;;;7.33;100.00;99013.70;660361;1312;138960;-85
2022/12/22 21:07:01;;;;;;;43.40;24.90;;;;;;;7.33;100.00;99014.39;661956;1304;138781;-87
2022/12/22 21:22:05;;;;;;;38.90;20.20;;;;;;;7.40;100.00;99016.85;660474;1313;138590;-87
2022/12/22 21:37:17;;;;;;;37.10;21.30;;;;;;;7.48;100.00;99011.38;660264;1312;138737;-87
2022/12/22 21:52:20;;;;;;;44.00;23.00;;;;;;;7.53;100.00;99009.20;660348;1312;138503;-87
2022/12/22 22:07:24;;;;;;;32.40;18.40;;;;;;;7.54;100.00;99020.80;660493;1313;138690;-87
2022/12/22 22:22:27;;;;;;;40.50;22.10;;;;;;;7.59;100.00;99024.48;660683;1312;138477;-86
2022/12/22 22:37:31;;;;;;;48.20;25.00;;;;;;;7.60;100.00;99032.05;660894;1305;138563;-87
2022/12/22 22:52:35;;;;;;;44.50;21.80;;;;;;;7.62;100.00;99042.97;660513;1313;138549;-86
2022/12/22 23:07:38;;;;;;;60.90;27.60;;;;;;;7.62;100.00;99052.20;660647;1303;138888;-86
2022/12/22 23:22:42;;;;;;;52.90;28.90;;;;;;;7.51;100.00;99063.30;660333;1313;139186;-86
2022/12/22 23:37:45;;;;;;;61.30;28.80;;;;;;;7.56;100.00;99077.16;660337;1313;138541;-86
2022/12/22 23:52:51;;;;;;;55.40;26.40;;;;;;;7.52;100.00;99074.14;660490;1312;139077;-84
